Time;durP1;ratioP1;P1;durP2;ratioP2;P2;SDS_P1;SDS_P2;PMS_P1;PMS_P2;Temp;Humidity;BMP_temperature;BMP_pressure;BME280_temperature;BME280_humidity;BME280_pressure;Samples;Min_cycle;Max_cycle;Signal;HPM_P1;HPM_P2
2021/07/23 00:01:11;;;;;;;6.67;5.30;;;;;;;;;;5033426;28;20449;-56
2021/07/23 00:03:39;;;;;;;5.80;5.30;;;;;;;;;;5033438;28;20456;-56
2021/07/23 00:06:07;;;;;;;8.30;5.17;;;;;;;;;;5032999;28;20445;-56
2021/07/23 00:08:34;;;;;;;6.47;5.67;;;;;;;;;;5032901;28;20473;-56
2021/07/23 00:11:01;;;;;;;5.47;4.97;;;;;;;;;;5033833;28;20448;-56
2021/07/23 00:13:28;;;;;;;7.60;5.90;;;;;;;;;;5033150;28;20531;-56
2021/07/23 00:15:57;;;;;;;5.63;4.83;;;;;;;;;;5032932;28;20471;-56
2021/07/23 00:18:24;;;;;;;6.97;5.87;;;;;;;;;;5033182;28;20539;-56
2021/07/23 00:20:52;;;;;;;11.07;6.17;;;;;;;;;;5032979;28;20449;-56
2021/07/23 00:23:19;;;;;;;12.00;6.60;;;;;;;;;;5034031;28;20440;-56
2021/07/23 00:25:46;;;;;;;5.77;5.30;;;;;;;;;;5036993;28;20502;-56
2021/07/23 00:28:14;;;;;;;8.57;6.40;;;;;;;;;;5037114;28;20515;-56
2021/07/23 00:30:41;;;;;;;7.53;5.80;;;;;;;;;;5036805;28;20510;-56
2021/07/23 00:33:10;;;;;;;10.50;6.50;;;;;;;;;;5037052;28;20476;-56
2021/07/23 00:35:37;;;;;;;7.17;5.97;;;;;;;;;;5036783;28;20452;-56
2021/07/23 00:38:05;;;;;;;7.30;6.60;;;;;;;;;;5036782;28;20484;-56
2021/07/23 00:40:34;;;;;;;8.47;6.57;;;;;;;;;;5036886;28;20433;-56
2021/07/23 00:43:01;;;;;;;8.83;6.60;;;;;;;;;;5036946;28;20453;-56
2021/07/23 00:45:28;;;;;;;9.90;6.37;;;;;;;;;;5036628;28;20475;-56
2021/07/23 00:48:01;;;;;;;6.00;5.50;;;;;;;;;;5036760;28;20473;-56
2021/07/23 00:50:29;;;;;;;7.13;6.10;;;;;;;;;;5036828;28;20436;-56
2021/07/23 00:52:56;;;;;;;6.17;5.30;;;;;;;;;;5036440;28;20996;-56
2021/07/23 00:55:25;;;;;;;6.00;5.23;;;;;;;;;;5036418;28;21015;-56
2021/07/23 00:57:52;;;;;;;9.37;5.53;;;;;;;;;;5036644;28;20515;-56
2021/07/23 01:00:20;;;;;;;5.33;4.83;;;;;;;;;;5036314;28;21002;-56
2021/07/23 01:02:48;;;;;;;7.63;5.23;;;;;;;;;;5036628;28;20449;-56
2021/07/23 01:05:15;;;;;;;5.90;5.40;;;;;;;;;;5036545;28;20441;-56
2021/07/23 01:07:44;;;;;;;9.97;5.87;;;;;;;;;;5037193;28;20476;-56
2021/07/23 01:10:11;;;;;;;8.53;5.40;;;;;;;;;;5036588;28;20449;-55
2021/07/23 01:12:39;;;;;;;6.10;5.50;;;;;;;;;;5036229;28;20999;-57
2021/07/23 01:15:07;;;;;;;7.47;5.70;;;;;;;;;;5036222;28;20453;-56
2021/07/23 01:17:34;;;;;;;8.63;5.80;;;;;;;;;;5036005;28;20456;-57
2021/07/23 01:20:03;;;;;;;6.70;5.30;;;;;;;;;;5036054;28;20503;-57
2021/07/23 01:22:32;;;;;;;6.00;5.07;;;;;;;;;;5036102;28;20518;-55
2021/07/23 01:25:01;;;;;;;6.23;5.60;;;;;;;;;;5036792;28;20784;-56
2021/07/23 01:27:28;;;;;;;6.10;5.20;;;;;;;;;;5036564;28;20937;-56
2021/07/23 01:30:01;;;;;;;6.77;6.00;;;;;;;;;;5036604;28;20473;-55
2021/07/23 01:32:28;;;;;;;7.90;5.70;;;;;;;;;;5036760;28;20513;-55
2021/07/23 01:34:55;;;;;;;6.93;6.23;;;;;;;;;;5035553;28;21054;-54
2021/07/23 01:37:23;;;;;;;9.53;6.03;;;;;;;;;;5035946;28;20506;-56
2021/07/23 01:39:51;;;;;;;8.83;6.53;;;;;;;;;;5060253;22;20567;-59
2021/07/23 01:42:20;;;;;;;7.97;6.10;;;;;;;;;;5036209;28;20495;-59
2021/07/23 01:44:47;;;;;;;6.70;6.00;;;;;;;;;;5036043;28;20498;-59
2021/07/23 01:47:14;;;;;;;6.60;6.00;;;;;;;;;;5035642;28;20491;-60
2021/07/23 01:49:41;;;;;;;6.43;5.83;;;;;;;;;;5035850;28;20457;-60
2021/07/23 01:52:09;;;;;;;8.97;6.20;;;;;;;;;;5035937;28;20885;-59
2021/07/23 01:54:36;;;;;;;7.53;6.30;;;;;;;;;;5036221;28;20533;-59
2021/07/23 01:57:04;;;;;;;8.00;6.80;;;;;;;;;;5035771;28;20452;-59
2021/07/23 01:59:33;;;;;;;10.87;6.60;;;;;;;;;;5035566;28;20477;-60
2021/07/23 02:02:00;;;;;;;11.37;6.50;;;;;;;;;;5036099;28;20449;-59
2021/07/23 02:04:27;;;;;;;8.10;6.40;;;;;;;;;;5036306;28;20441;-59
2021/07/23 02:06:55;;;;;;;6.63;5.83;;;;;;;;;;5035938;28;20937;-59
2021/07/23 02:09:22;;;;;;;9.67;6.60;;;;;;;;;;5035982;28;20468;-59
2021/07/23 02:11:49;;;;;;;11.60;6.97;;;;;;;;;;5036601;28;20499;-59
2021/07/23 02:14:16;;;;;;;10.03;7.00;;;;;;;;;;5035721;28;20492;-59
2021/07/23 02:16:45;;;;;;;7.53;5.73;;;;;;;;;;5035900;28;20452;-59
2021/07/23 02:19:12;;;;;;;9.20;6.70;;;;;;;;;;5036833;28;20519;-58
2021/07/23 02:21:40;;;;;;;7.60;6.80;;;;;;;;;;5036017;28;20499;-59
2021/07/23 02:24:07;;;;;;;9.33;6.73;;;;;;;;;;5036130;28;20453;-59
2021/07/23 02:26:34;;;;;;;8.10;7.30;;;;;;;;;;5035512;28;21003;-59
2021/07/23 02:29:02;;;;;;;8.73;6.10;;;;;;;;;;5034692;28;20464;-59
2021/07/23 02:31:29;;;;;;;8.67;7.50;;;;;;;;;;5035028;28;20472;-59
2021/07/23 02:33:57;;;;;;;11.37;6.73;;;;;;;;;;5035549;28;20530;-59
2021/07/23 02:36:25;;;;;;;7.40;6.80;;;;;;;;;;5035367;28;20499;-59
2021/07/23 02:38:52;;;;;;;11.40;7.77;;;;;;;;;;5035200;28;20480;-58
2021/07/23 02:41:19;;;;;;;9.17;6.73;;;;;;;;;;5034925;28;20941;-59
2021/07/23 02:43:49;;;;;;;10.90;8.03;;;;;;;;;;5035503;28;20453;-59
2021/07/23 02:46:16;;;;;;;8.20;7.13;;;;;;;;;;5034835;28;20529;-59
2021/07/23 02:48:44;;;;;;;10.43;6.83;;;;;;;;;;5034292;28;20518;-59
2021/07/23 02:51:13;;;;;;;10.67;9.53;;;;;;;;;;5035030;28;20441;-59
2021/07/23 02:53:40;;;;;;;8.20;6.67;;;;;;;;;;5034709;28;20488;-59
2021/07/23 02:56:08;;;;;;;7.33;6.63;;;;;;;;;;5034224;28;20446;-59
2021/07/23 02:58:38;;;;;;;8.43;7.53;;;;;;;;;;5034401;28;20568;-58
2021/07/23 03:01:05;;;;;;;7.83;7.03;;;;;;;;;;5034139;28;20532;-59
2021/07/23 03:03:33;;;;;;;8.27;7.47;;;;;;;;;;5034326;28;20441;-59
2021/07/23 03:06:00;;;;;;;8.30;7.50;;;;;;;;;;5034297;28;20510;-59
2021/07/23 03:08:29;;;;;;;9.77;7.07;;;;;;;;;;5033880;28;20890;-59
2021/07/23 03:10:56;;;;;;;11.00;7.50;;;;;;;;;;5033935;28;20499;-59
2021/07/23 03:13:24;;;;;;;7.73;7.07;;;;;;;;;;5033815;28;20449;-59
2021/07/23 03:15:51;;;;;;;8.07;7.27;;;;;;;;;;5034099;28;20437;-59
2021/07/23 03:18:18;;;;;;;7.90;7.20;;;;;;;;;;5033655;28;20469;-59
2021/07/23 03:20:45;;;;;;;9.07;7.80;;;;;;;;;;5034006;28;20495;-59
2021/07/23 03:23:13;;;;;;;8.30;7.10;;;;;;;;;;5034033;28;20515;-59
2021/07/23 03:25:41;;;;;;;8.43;7.60;;;;;;;;;;5033487;28;20997;-59
2021/07/23 03:28:09;;;;;;;9.67;8.00;;;;;;;;;;5033816;28;20881;-59
2021/07/23 03:30:37;;;;;;;9.10;6.83;;;;;;;;;;5033520;28;20441;-59
2021/07/23 03:33:04;;;;;;;8.60;6.93;;;;;;;;;;5033559;28;20545;-59
2021/07/23 03:35:32;;;;;;;8.53;7.73;;;;;;;;;;5033715;28;20562;-60
2021/07/23 03:37:59;;;;;;;7.80;7.00;;;;;;;;;;5033248;28;20480;-59
2021/07/23 03:40:26;;;;;;;8.50;7.20;;;;;;;;;;5033786;28;20429;-59
2021/07/23 03:42:55;;;;;;;9.57;7.40;;;;;;;;;;5033538;28;20523;-59
2021/07/23 03:45:22;;;;;;;10.33;6.70;;;;;;;;;;5033688;28;20495;-59
2021/07/23 03:47:49;;;;;;;9.13;6.80;;;;;;;;;;5033654;28;20441;-60
2021/07/23 03:50:16;;;;;;;7.97;7.17;;;;;;;;;;5033457;28;20864;-60
2021/07/23 03:52:44;;;;;;;7.37;6.67;;;;;;;;;;5033343;28;20503;-59
2021/07/23 03:55:12;;;;;;;8.00;7.20;;;;;;;;;;5033534;28;21060;-59
2021/07/23 03:57:40;;;;;;;9.20;6.67;;;;;;;;;;5041254;28;20530;-59
2021/07/23 04:00:10;;;;;;;7.33;6.63;;;;;;;;;;5053890;28;20497;-59
2021/07/23 04:02:37;;;;;;;7.40;6.70;;;;;;;;;;5052018;28;20445;-59
2021/07/23 04:08:24;;;;;;;11.73;7.10;;;;;;;;;;5095797;27;20550;-59
2021/07/23 04:10:51;;;;;;;9.13;6.73;;;;;;;;;;5094888;28;20438;-59
2021/07/23 04:13:18;;;;;;;7.93;6.83;;;;;;;;;;5094386;28;20511;-58
2021/07/23 04:15:45;;;;;;;11.10;6.83;;;;;;;;;;5092292;28;20439;-59
2021/07/23 04:18:13;;;;;;;13.63;6.30;;;;;;;;;;5091176;28;20439;-60
2021/07/23 04:20:40;;;;;;;8.00;5.30;;;;;;;;;;5090948;28;20446;-60
2021/07/23 04:23:07;;;;;;;6.73;6.10;;;;;;;;;;5090759;28;20442;-59
2021/07/23 04:25:38;;;;;;;5.67;4.80;;;;;;;;;;5090387;28;21007;-58
2021/07/23 04:28:05;;;;;;;7.07;5.20;;;;;;;;;;5090607;28;20489;-60
2021/07/23 04:30:32;;;;;;;5.50;4.97;;;;;;;;;;5090144;28;20446;-58
2021/07/23 04:33:00;;;;;;;6.30;5.20;;;;;;;;;;5090236;28;20454;-60
2021/07/23 04:35:27;;;;;;;8.03;5.57;;;;;;;;;;5089996;28;20987;-60
2021/07/23 04:37:54;;;;;;;7.43;4.50;;;;;;;;;;5089881;28;20446;-59
2021/07/23 04:40:21;;;;;;;9.30;4.70;;;;;;;;;;5090491;28;20497;-59
2021/07/23 04:42:50;;;;;;;5.13;4.63;;;;;;;;;;5090321;28;20520;-60
2021/07/23 04:45:17;;;;;;;8.63;4.70;;;;;;;;;;5090238;28;20442;-59
2021/07/23 04:47:45;;;;;;;5.60;4.87;;;;;;;;;;5089834;28;20990;-60
2021/07/23 04:50:12;;;;;;;7.07;4.70;;;;;;;;;;5090184;28;20466;-59
2021/07/23 04:52:39;;;;;;;5.70;4.60;;;;;;;;;;5090380;28;20859;-58
2021/07/23 04:55:12;;;;;;;5.80;4.93;;;;;;;;;;5090419;28;20430;-59
2021/07/23 04:57:44;;;;;;;12.00;5.47;;;;;;;;;;5089860;28;20418;-59
2021/07/23 05:00:13;;;;;;;9.80;4.67;;;;;;;;;;5091080;28;20974;-59
2021/07/23 05:02:42;;;;;;;8.00;5.07;;;;;;;;;;5090779;28;20941;-60
2021/07/23 05:05:11;;;;;;;7.33;5.20;;;;;;;;;;5090849;28;20450;-60
2021/07/23 05:07:38;;;;;;;6.30;4.83;;;;;;;;;;5090300;28;20903;-59
2021/07/23 05:10:06;;;;;;;6.60;4.57;;;;;;;;;;5090352;28;20507;-60
2021/07/23 05:12:33;;;;;;;6.00;4.70;;;;;;;;;;5090213;28;20487;-59
2021/07/23 05:15:01;;;;;;;4.63;4.23;;;;;;;;;;5089412;28;20883;-59
2021/07/23 05:17:30;;;;;;;5.13;4.40;;;;;;;;;;5088958;28;20444;-60
2021/07/23 05:19:57;;;;;;;5.13;4.40;;;;;;;;;;5075706;28;20582;-59
2021/07/23 05:22:24;;;;;;;5.43;4.93;;;;;;;;;;5076524;28;20448;-61
2021/07/23 05:24:52;;;;;;;5.80;5.30;;;;;;;;;;5076497;28;20445;-60
2021/07/23 05:27:19;;;;;;;8.30;4.67;;;;;;;;;;5076341;28;20480;-59
2021/07/23 05:29:46;;;;;;;5.97;4.93;;;;;;;;;;5076169;28;20463;-58
2021/07/23 05:32:14;;;;;;;9.30;5.20;;;;;;;;;;5075780;28;20444;-59
2021/07/23 05:34:42;;;;;;;7.07;5.43;;;;;;;;;;5076069;28;20444;-60
2021/07/23 05:37:09;;;;;;;6.50;5.90;;;;;;;;;;5075666;28;20453;-59
2021/07/23 05:39:41;;;;;;;6.80;4.97;;;;;;;;;;5075282;28;20534;-58
2021/07/23 05:42:08;;;;;;;7.00;5.17;;;;;;;;;;5075318;28;20463;-59
2021/07/23 05:44:35;;;;;;;5.90;5.30;;;;;;;;;;5075656;28;20585;-59
2021/07/23 05:47:03;;;;;;;7.10;4.70;;;;;;;;;;5075180;28;20475;-59
2021/07/23 05:49:30;;;;;;;6.73;4.70;;;;;;;;;;5075437;28;20526;-60
2021/07/23 05:51:58;;;;;;;6.20;4.80;;;;;;;;;;5075438;28;20931;-59
2021/07/23 05:54:26;;;;;;;6.30;5.00;;;;;;;;;;5075586;28;20846;-60
2021/07/23 05:56:53;;;;;;;8.30;4.87;;;;;;;;;;5076320;28;20445;-58
2021/07/23 05:59:21;;;;;;;5.93;5.33;;;;;;;;;;5076288;28;20466;-58
2021/07/23 06:01:48;;;;;;;11.00;5.10;;;;;;;;;;5076299;28;20509;-59
2021/07/23 06:04:15;;;;;;;7.13;6.10;;;;;;;;;;5075713;28;20866;-61
2021/07/23 06:06:42;;;;;;;7.13;5.67;;;;;;;;;;5076246;28;20471;-58
2021/07/23 06:09:11;;;;;;;8.17;5.40;;;;;;;;;;5076792;28;20871;-59
2021/07/23 06:11:39;;;;;;;6.83;5.07;;;;;;;;;;5077190;28;20453;-61
2021/07/23 06:14:07;;;;;;;6.07;5.47;;;;;;;;;;5076537;28;20862;-58
2021/07/23 06:16:34;;;;;;;7.10;4.60;;;;;;;;;;5077440;28;20447;-59
2021/07/23 06:19:01;;;;;;;5.77;5.00;;;;;;;;;;5077545;28;20993;-59
2021/07/23 06:21:29;;;;;;;7.43;5.07;;;;;;;;;;5077289;28;20457;-59
2021/07/23 06:23:56;;;;;;;6.30;4.57;;;;;;;;;;5077623;28;20446;-59
2021/07/23 06:26:25;;;;;;;6.33;5.07;;;;;;;;;;5077055;28;20507;-59
2021/07/23 06:28:52;;;;;;;7.67;5.60;;;;;;;;;;5076677;28;20537;-59
2021/07/23 06:31:19;;;;;;;7.57;5.33;;;;;;;;;;5075901;28;20935;-60
2021/07/23 06:33:47;;;;;;;4.70;4.20;;;;;;;;;;5077052;28;20501;-59
2021/07/23 06:36:14;;;;;;;7.27;6.03;;;;;;;;;;5077126;28;20451;-60
2021/07/23 06:38:41;;;;;;;11.73;4.60;;;;;;;;;;5077457;28;20532;-61
2021/07/23 06:41:08;;;;;;;6.40;4.83;;;;;;;;;;5076316;28;20440;-60
2021/07/23 06:43:37;;;;;;;7.63;4.63;;;;;;;;;;5076913;28;20452;-59
2021/07/23 06:46:05;;;;;;;7.30;5.13;;;;;;;;;;5077047;28;20488;-59
2021/07/23 06:48:32;;;;;;;10.63;4.60;;;;;;;;;;5075899;28;20489;-59
2021/07/23 06:50:59;;;;;;;7.33;5.77;;;;;;;;;;5078775;28;20970;-59
2021/07/23 06:53:27;;;;;;;5.93;5.13;;;;;;;;;;5079533;28;20459;-60
2021/07/23 06:55:54;;;;;;;10.97;6.93;;;;;;;;;;5080019;28;20857;-59
2021/07/23 06:58:22;;;;;;;5.53;4.90;;;;;;;;;;5080483;28;20487;-59
2021/07/23 07:00:51;;;;;;;5.00;4.50;;;;;;;;;;5074203;28;20447;-60
2021/07/23 07:03:18;;;;;;;6.23;5.30;;;;;;;;;;5074915;28;20447;-59
2021/07/23 07:05:50;;;;;;;7.20;5.73;;;;;;;;;;5074222;28;20526;-58
2021/07/23 07:08:17;;;;;;;8.13;5.27;;;;;;;;;;5073433;28;20490;-60
2021/07/23 07:10:44;;;;;;;8.30;4.67;;;;;;;;;;5073730;28;20512;-60
2021/07/23 07:13:11;;;;;;;6.67;5.50;;;;;;;;;;5073579;28;20946;-59
2021/07/23 07:15:39;;;;;;;5.60;4.70;;;;;;;;;;5074380;28;20529;-60
2021/07/23 07:18:07;;;;;;;7.20;4.50;;;;;;;;;;5073951;28;20528;-58
2021/07/23 07:20:34;;;;;;;5.17;4.67;;;;;;;;;;5074094;28;20516;-60
2021/07/23 07:23:02;;;;;;;5.90;4.27;;;;;;;;;;5073997;28;20443;-60
2021/07/23 07:25:31;;;;;;;7.40;4.00;;;;;;;;;;5074235;28;20788;-59
2021/07/23 07:27:58;;;;;;;4.90;4.40;;;;;;;;;;5074056;28;20586;-60
2021/07/23 07:30:25;;;;;;;7.17;3.67;;;;;;;;;;5074096;28;20452;-59
2021/07/23 07:32:53;;;;;;;5.20;4.50;;;;;;;;;;5073990;28;20506;-60
2021/07/23 07:35:21;;;;;;;7.00;3.97;;;;;;;;;;5073821;28;20447;-59
2021/07/23 07:37:48;;;;;;;5.30;3.50;;;;;;;;;;5073172;28;20946;-60
2021/07/23 07:40:16;;;;;;;5.23;4.40;;;;;;;;;;5085474;22;20563;-57
2021/07/23 07:42:43;;;;;;;5.23;4.17;;;;;;;;;;5032980;28;20502;-56
2021/07/23 07:45:11;;;;;;;5.80;4.00;;;;;;;;;;5033353;28;20445;-56
2021/07/23 07:47:38;;;;;;;5.00;4.17;;;;;;;;;;5033426;28;20487;-55
2021/07/23 07:50:06;;;;;;;7.10;4.43;;;;;;;;;;5032710;28;20473;-55
2021/07/23 07:52:34;;;;;;;6.27;4.47;;;;;;;;;;5033234;28;20955;-55
2021/07/23 07:55:02;;;;;;;6.27;4.47;;;;;;;;;;5033109;28;20941;-55
2021/07/23 07:57:29;;;;;;;4.30;3.40;;;;;;;;;;5033069;28;20437;-55
2021/07/23 07:59:57;;;;;;;5.10;4.43;;;;;;;;;;5033011;28;20514;-56
2021/07/23 08:02:25;;;;;;;4.33;3.93;;;;;;;;;;5032962;28;21041;-55
2021/07/23 08:04:52;;;;;;;6.40;3.63;;;;;;;;;;5032835;28;20946;-55
2021/07/23 08:07:21;;;;;;;3.60;3.30;;;;;;;;;;5032935;28;20880;-55
2021/07/23 08:09:52;;;;;;;3.83;3.00;;;;;;;;;;5032979;28;20470;-52
2021/07/23 08:12:20;;;;;;;3.57;3.00;;;;;;;;;;5032775;28;20426;-55
2021/07/23 08:14:47;;;;;;;4.70;3.80;;;;;;;;;;5033092;28;20860;-55
2021/07/23 08:17:14;;;;;;;3.87;3.53;;;;;;;;;;5032598;28;20877;-54
2021/07/23 08:19:42;;;;;;;5.73;3.60;;;;;;;;;;5032806;28;20445;-54
2021/07/23 08:22:10;;;;;;;4.00;3.70;;;;;;;;;;5032831;28;20496;-55
2021/07/23 08:24:38;;;;;;;3.73;3.37;;;;;;;;;;5032539;28;20503;-54
2021/07/23 08:27:07;;;;;;;4.20;3.63;;;;;;;;;;5033251;28;20450;-55
2021/07/23 08:29:34;;;;;;;5.37;3.87;;;;;;;;;;5032518;28;20483;-54
2021/07/23 08:32:08;;;;;;;3.63;3.30;;;;;;;;;;5032974;28;20455;-54
2021/07/23 08:34:35;;;;;;;5.00;3.87;;;;;;;;;;5032176;28;20491;-53
2021/07/23 08:37:02;;;;;;;5.13;3.90;;;;;;;;;;5032601;28;20514;-53
2021/07/23 08:39:30;;;;;;;4.33;3.67;;;;;;;;;;5032441;28;20447;-55
2021/07/23 08:41:57;;;;;;;4.37;3.90;;;;;;;;;;5032641;28;20809;-53
2021/07/23 08:44:27;;;;;;;4.30;3.20;;;;;;;;;;5032488;28;20545;-53
2021/07/23 08:46:54;;;;;;;4.13;3.73;;;;;;;;;;5032765;28;20457;-54
2021/07/23 08:49:22;;;;;;;3.10;2.60;;;;;;;;;;5032692;28;20480;-54
2021/07/23 08:51:50;;;;;;;4.93;3.57;;;;;;;;;;5032545;28;20467;-54
2021/07/23 08:54:17;;;;;;;3.53;3.23;;;;;;;;;;5034555;28;20452;-54
2021/07/23 08:56:47;;;;;;;2.97;2.77;;;;;;;;;;5035842;28;20446;-55
2021/07/23 08:59:15;;;;;;;3.10;2.80;;;;;;;;;;5036035;28;20448;-54
2021/07/23 09:01:59;;;;;;;2.30;2.10;;;;;;;;;;5036397;28;20526;-54
2021/07/23 09:04:30;;;;;;;3.33;2.93;;;;;;;;;;5036213;28;20459;-54
2021/07/23 09:07:27;;;;;;;3.00;2.23;;;;;;;;;;5036013;28;20452;-54
2021/07/23 09:09:55;;;;;;;3.87;2.30;;;;;;;;;;5035899;28;20465;-54
2021/07/23 09:12:22;;;;;;;3.47;1.90;;;;;;;;;;5035794;28;20446;-53
2021/07/23 09:14:50;;;;;;;2.83;2.00;;;;;;;;;;5036037;28;20503;-53
2021/07/23 09:17:19;;;;;;;4.07;2.03;;;;;;;;;;5036726;28;20812;-55
2021/07/23 09:20:02;;;;;;;6.73;2.40;;;;;;;;;;5036338;28;20450;-55
2021/07/23 09:22:43;;;;;;;3.17;2.83;;;;;;;;;;5036027;28;20526;-53
2021/07/23 09:25:10;;;;;;;2.60;2.40;;;;;;;;;;5035978;28;20850;-54
2021/07/23 09:27:38;;;;;;;4.63;2.87;;;;;;;;;;5035388;28;20939;-53
2021/07/23 09:30:06;;;;;;;3.03;2.60;;;;;;;;;;5035513;28;20473;-54
2021/07/23 09:32:35;;;;;;;4.00;3.07;;;;;;;;;;5035421;28;20908;-53
2021/07/23 09:35:09;;;;;;;2.70;2.50;;;;;;;;;;5035615;28;20451;-52
2021/07/23 09:37:47;;;;;;;4.03;3.30;;;;;;;;;;5035563;28;20435;-54
2021/07/23 09:40:15;;;;;;;4.13;3.20;;;;;;;;;;5035189;28;20898;-54
2021/07/23 09:42:42;;;;;;;3.50;3.20;;;;;;;;;;5035113;28;20460;-54
2021/07/23 09:45:10;;;;;;;3.80;3.00;;;;;;;;;;5035451;28;20513;-53
2021/07/23 09:47:38;;;;;;;4.00;3.60;;;;;;;;;;5035411;28;20462;-53
2021/07/23 09:50:06;;;;;;;4.83;3.50;;;;;;;;;;5034943;28;20467;-54
2021/07/23 09:52:34;;;;;;;4.57;4.10;;;;;;;;;;5035279;28;20449;-54
2021/07/23 09:55:03;;;;;;;5.40;4.03;;;;;;;;;;5035282;28;20436;-54
2021/07/23 09:57:31;;;;;;;5.90;4.70;;;;;;;;;;5035312;28;20508;-54
2021/07/23 10:00:02;;;;;;;5.13;3.87;;;;;;;;;;5034859;28;20463;-54
2021/07/23 10:02:32;;;;;;;6.70;3.50;;;;;;;;;;5035135;28;20448;-54
2021/07/23 10:05:03;;;;;;;3.40;3.10;;;;;;;;;;5034971;28;20454;-54
2021/07/23 10:07:34;;;;;;;5.20;3.07;;;;;;;;;;5035096;28;20527;-53
2021/07/23 10:10:02;;;;;;;3.23;2.93;;;;;;;;;;5034435;28;20894;-55
2021/07/23 10:12:30;;;;;;;3.77;3.07;;;;;;;;;;5035327;28;20456;-53
2021/07/23 10:14:57;;;;;;;4.47;3.07;;;;;;;;;;5034761;28;20449;-53
2021/07/23 10:17:26;;;;;;;4.07;3.70;;;;;;;;;;5034644;28;20870;-54
2021/07/23 10:19:57;;;;;;;6.47;3.80;;;;;;;;;;5034515;28;20510;-55
2021/07/23 10:22:26;;;;;;;6.13;4.47;;;;;;;;;;5034624;28;20539;-54
2021/07/23 10:24:53;;;;;;;4.70;4.30;;;;;;;;;;5034104;28;20457;-55
2021/07/23 10:27:23;;;;;;;4.00;3.60;;;;;;;;;;5034200;28;20511;-56
2021/07/23 10:29:51;;;;;;;3.60;2.83;;;;;;;;;;5034616;28;20536;-53
2021/07/23 10:32:34;;;;;;;3.90;3.00;;;;;;;;;;5034162;28;21068;-55
2021/07/23 10:35:03;;;;;;;3.23;2.90;;;;;;;;;;5033880;28;20451;-52
2021/07/23 10:37:48;;;;;;;4.00;2.60;;;;;;;;;;5034321;28;20481;-55
2021/07/23 10:40:18;;;;;;;3.00;2.70;;;;;;;;;;5033928;28;20496;-56
2021/07/23 10:42:46;;;;;;;3.97;2.90;;;;;;;;;;5034459;28;20445;-55
2021/07/23 10:45:14;;;;;;;2.67;2.47;;;;;;;;;;5035410;28;20441;-56
2021/07/23 10:47:43;;;;;;;4.23;3.37;;;;;;;;;;5036629;28;20479;-56
2021/07/23 10:50:11;;;;;;;3.90;3.10;;;;;;;;;;5034288;28;20536;-56
2021/07/23 10:52:39;;;;;;;5.30;3.47;;;;;;;;;;5034790;28;20446;-57
2021/07/23 10:55:13;;;;;;;4.37;3.60;;;;;;;;;;5034482;28;20464;-56
2021/07/23 10:57:42;;;;;;;5.80;3.83;;;;;;;;;;5034131;28;20432;-55
2021/07/23 11:00:10;;;;;;;4.57;4.10;;;;;;;;;;5034048;28;20465;-54
2021/07/23 11:02:47;;;;;;;5.40;4.47;;;;;;;;;;5034073;28;20437;-57
2021/07/23 11:05:16;;;;;;;5.23;4.20;;;;;;;;;;5034491;28;20898;-55
2021/07/23 11:07:44;;;;;;;7.27;4.30;;;;;;;;;;5034371;28;20459;-56
2021/07/23 11:10:13;;;;;;;7.03;4.60;;;;;;;;;;5034134;28;20556;-56
2021/07/23 11:12:45;;;;;;;5.00;4.07;;;;;;;;;;5034515;28;20498;-55
2021/07/23 11:15:13;;;;;;;5.20;3.83;;;;;;;;;;5033622;28;20894;-56
2021/07/23 11:17:51;;;;;;;4.00;3.60;;;;;;;;;;5033277;28;21011;-56
2021/07/23 11:20:23;;;;;;;5.10;4.17;;;;;;;;;;5033410;28;20458;-57
2021/07/23 11:22:51;;;;;;;3.87;3.40;;;;;;;;;;5033698;28;20427;-56
2021/07/23 11:25:19;;;;;;;3.30;3.00;;;;;;;;;;5033407;28;20954;-56
2021/07/23 11:27:51;;;;;;;3.07;2.77;;;;;;;;;;5033742;28;20514;-56
2021/07/23 11:30:20;;;;;;;4.60;3.03;;;;;;;;;;5033609;28;20481;-56
2021/07/23 11:32:53;;;;;;;4.27;3.53;;;;;;;;;;5033183;28;20496;-56
2021/07/23 11:35:20;;;;;;;5.23;3.90;;;;;;;;;;5032971;28;20449;-56
2021/07/23 11:37:48;;;;;;;5.17;3.77;;;;;;;;;;5032494;28;20833;-57
2021/07/23 11:40:16;;;;;;;3.80;3.47;;;;;;;;;;5032786;28;20857;-57
2021/07/23 11:42:45;;;;;;;3.83;3.40;;;;;;;;;;5033328;28;20433;-57
2021/07/23 11:45:14;;;;;;;6.17;3.37;;;;;;;;;;5033735;28;20461;-57
2021/07/23 11:47:42;;;;;;;4.23;3.47;;;;;;;;;;5032652;28;20515;-56
2021/07/23 11:50:10;;;;;;;3.20;2.90;;;;;;;;;;5032895;28;20492;-54
2021/07/23 11:52:38;;;;;;;5.90;3.90;;;;;;;;;;5033082;28;20507;-56
2021/07/23 11:55:06;;;;;;;3.83;3.53;;;;;;;;;;5033327;28;20505;-55
2021/07/23 11:57:37;;;;;;;3.90;3.50;;;;;;;;;;5033140;28;20441;-55
2021/07/23 12:00:04;;;;;;;4.23;3.83;;;;;;;;;;5033081;28;20474;-56
2021/07/23 12:02:33;;;;;;;4.57;4.17;;;;;;;;;;5032647;28;20934;-56
2021/07/23 12:05:10;;;;;;;5.20;4.57;;;;;;;;;;5032869;28;20456;-54
2021/07/23 12:07:37;;;;;;;4.40;3.90;;;;;;;;;;5032561;28;20769;-54
2021/07/23 12:10:05;;;;;;;4.07;3.67;;;;;;;;;;5032847;28;20502;-56
2021/07/23 12:12:33;;;;;;;5.47;3.57;;;;;;;;;;5032969;28;20472;-54
2021/07/23 12:15:04;;;;;;;4.90;3.53;;;;;;;;;;5032748;28;20453;-55
2021/07/23 12:17:33;;;;;;;4.10;3.70;;;;;;;;;;5032764;28;20453;-56
2021/07/23 12:20:00;;;;;;;4.20;3.60;;;;;;;;;;5032271;28;20515;-55
2021/07/23 12:22:27;;;;;;;4.37;3.97;;;;;;;;;;5032226;28;20449;-55
2021/07/23 12:24:55;;;;;;;4.23;3.60;;;;;;;;;;5032259;28;20450;-55
2021/07/23 12:27:23;;;;;;;3.63;3.33;;;;;;;;;;5032147;28;20445;-56
2021/07/23 12:29:50;;;;;;;5.03;3.28;;;;;;;;;;5035315;28;20449;-55
2021/07/23 12:32:22;;;;;;;5.17;3.23;;;;;;;;;;5036526;28;20207;-55
2021/07/23 12:34:57;;;;;;;3.67;3.30;;;;;;;;;;5036374;28;20441;-53
2021/07/23 12:37:24;;;;;;;14.93;9.67;;;;;;;;;;5036686;28;20484;-55
2021/07/23 12:39:57;;;;;;;7.20;5.20;;;;;;;;;;5036092;28;20999;-55
2021/07/23 12:42:25;;;;;;;5.27;4.77;;;;;;;;;;5036501;28;20456;-55
2021/07/23 12:44:53;;;;;;;5.03;4.60;;;;;;;;;;5036678;28;20889;-55
2021/07/23 12:47:20;;;;;;;5.60;4.50;;;;;;;;;;5036225;28;20454;-56
2021/07/23 12:49:48;;;;;;;4.80;4.30;;;;;;;;;;5036419;28;20496;-56
2021/07/23 12:52:16;;;;;;;5.17;4.57;;;;;;;;;;5036392;28;20492;-55
2021/07/23 12:54:44;;;;;;;4.77;4.20;;;;;;;;;;5035999;28;20455;-55
2021/07/23 12:57:16;;;;;;;4.80;4.30;;;;;;;;;;5036182;28;20506;-55
2021/07/23 12:59:44;;;;;;;7.40;5.23;;;;;;;;;;5036301;28;20542;-55
2021/07/23 13:02:11;;;;;;;6.17;5.40;;;;;;;;;;5035930;28;20597;-55
2021/07/23 13:04:38;;;;;;;5.50;5.00;;;;;;;;;;5036502;28;20509;-56
2021/07/23 13:07:07;;;;;;;5.13;4.63;;;;;;;;;;5036258;28;20456;-55
2021/07/23 13:09:35;;;;;;;5.50;5.00;;;;;;;;;;5035656;28;20573;-56
2021/07/23 13:12:02;;;;;;;5.73;4.10;;;;;;;;;;5036213;28;20512;-57
2021/07/23 13:14:30;;;;;;;4.67;4.20;;;;;;;;;;5035909;28;20864;-56
2021/07/23 13:16:59;;;;;;;5.07;4.50;;;;;;;;;;5035686;28;20860;-55
2021/07/23 13:19:26;;;;;;;5.53;5.03;;;;;;;;;;5035830;28;20493;-52
2021/07/23 13:21:53;;;;;;;8.47;4.80;;;;;;;;;;5036303;28;20535;-55
2021/07/23 13:24:20;;;;;;;5.17;4.67;;;;;;;;;;5035881;28;20508;-56
2021/07/23 13:26:49;;;;;;;7.80;4.00;;;;;;;;;;5035831;28;20449;-55
2021/07/23 13:29:22;;;;;;;6.97;3.90;;;;;;;;;;5035649;28;20547;-55
2021/07/23 13:31:49;;;;;;;5.13;4.43;;;;;;;;;;5035725;28;20469;-55
2021/07/23 13:34:16;;;;;;;5.80;4.30;;;;;;;;;;5035564;28;20880;-55
2021/07/23 13:36:46;;;;;;;7.47;4.50;;;;;;;;;;5035406;28;20462;-54
2021/07/23 13:39:15;;;;;;;5.00;3.77;;;;;;;;;;5034933;28;20952;-56
2021/07/23 13:41:44;;;;;;;6.40;4.73;;;;;;;;;;5059423;22;20490;-59
2021/07/23 13:44:12;;;;;;;4.67;3.93;;;;;;;;;;5035290;28;20850;-58
2021/07/23 13:46:41;;;;;;;5.10;4.10;;;;;;;;;;5035337;28;20446;-58
2021/07/23 13:49:08;;;;;;;6.67;4.63;;;;;;;;;;5035436;28;20477;-59
2021/07/23 13:51:35;;;;;;;4.60;3.90;;;;;;;;;;5035120;28;20518;-58
2021/07/23 13:54:02;;;;;;;6.90;4.63;;;;;;;;;;5035671;28;20454;-58
2021/07/23 13:56:31;;;;;;;4.77;4.27;;;;;;;;;;5035036;28;20449;-58
2021/07/23 13:59:01;;;;;;;4.67;4.10;;;;;;;;;;5035150;28;20538;-58
2021/07/23 14:01:31;;;;;;;4.57;4.17;;;;;;;;;;5035057;28;20560;-58
2021/07/23 14:03:58;;;;;;;4.87;4.47;;;;;;;;;;5035029;28;20450;-57
2021/07/23 14:06:26;;;;;;;4.17;3.77;;;;;;;;;;5034870;28;21010;-59
2021/07/23 14:08:54;;;;;;;7.13;4.43;;;;;;;;;;5034825;28;20457;-58
2021/07/23 14:11:22;;;;;;;5.27;4.77;;;;;;;;;;5034929;28;20566;-59
2021/07/23 14:13:50;;;;;;;6.00;5.40;;;;;;;;;;5035611;28;20502;-59
2021/07/23 14:16:17;;;;;;;6.53;5.30;;;;;;;;;;5034888;28;20474;-57
2021/07/23 14:18:46;;;;;;;5.00;4.60;;;;;;;;;;5034800;28;20491;-59
2021/07/23 14:21:14;;;;;;;4.90;4.40;;;;;;;;;;5034990;28;20806;-59
2021/07/23 14:23:41;;;;;;;6.83;4.87;;;;;;;;;;5034719;28;20923;-57
2021/07/23 14:26:08;;;;;;;4.93;4.17;;;;;;;;;;5034771;28;20940;-56
2021/07/23 14:28:35;;;;;;;5.73;4.70;;;;;;;;;;5034966;28;20451;-59
2021/07/23 14:31:03;;;;;;;4.80;4.20;;;;;;;;;;5034993;28;20588;-58
2021/07/23 14:33:30;;;;;;;4.70;4.30;;;;;;;;;;5034596;28;21012;-59
2021/07/23 14:35:58;;;;;;;11.10;6.47;;;;;;;;;;5034723;28;20521;-57
2021/07/23 14:38:26;;;;;;;6.03;5.03;;;;;;;;;;5034565;28;20442;-58
2021/07/23 14:40:54;;;;;;;4.83;4.43;;;;;;;;;;5034042;28;20476;-59
2021/07/23 14:43:22;;;;;;;5.37;4.87;;;;;;;;;;5034758;28;20584;-58
2021/07/23 14:45:49;;;;;;;5.90;4.77;;;;;;;;;;5034289;28;20886;-58
2021/07/23 14:48:16;;;;;;;6.50;5.03;;;;;;;;;;5034121;28;20446;-59
2021/07/23 14:50:43;;;;;;;5.60;5.00;;;;;;;;;;5033616;28;20538;-59
2021/07/23 14:53:12;;;;;;;7.03;4.90;;;;;;;;;;5033809;28;20979;-58